Sunday, June 26, 2016
00:56 UTC
  |  Log In   |  Register Free
Airport Search:

Vidalia Regional Airport
(KVDI)

Vidalia Regional Airport Diagram
No Airport Diagram Available

FAA data valid effective May 26 2016 - Jul 21 2016 (unless otherwise noted).

 
 
 
 
 
 
 
 
 
 
 
 
 
 
Current Aviation Weather for KVDI

Weather Summary


The most recent METAR observation for VDI was updated at: 12:55 UTC
METAR for KVDI is not available. Closest METAR is for KAZE
KVDI  (most recent observation was updatred at 26:00 UTC)
260035Z AUTO 21005KT 10SM SCT090 30/19 A3004 RMK AO2 LTG DSNT S

KAZE  (23.2 nm NE)   (most recent observation was updated at 26:00 UTC)
260035Z AUTO 00000KT 10SM CLR 29/23 A3002 RMK AO2 LTG DSNT E AND SE T02860229

KSBO  (25.0 nm SW)   (most recent observation was updated at 26:00 UTC)
260035Z AUTO 00000KT 10SM CLR 32/23 A3003 RMK AO2

TAF for KVDI is not available.
GlobalAir.com is loading additional information.
 Current Weather at VDI
97.0 F° (36.0 C°)

South winds at 5.8 mph
Pressure:
30.00 in
Humidity:
39%
Wind:
South at 5.8 mph
Dew Point:
68.0 F° (20.0 C°)
Visibility:
10.00 mi
VDI NOAA Radar




Find All Airport Services Find A Hotel Find A Rental Car Find A Golf Course Find A Restaurant $100 Hamburger



Airport Weather Forecast for KVDI

Translated METAR for KVDI (0035 UTC)
METAR:
KVDI 260035Z AUTO 21005KT 10SM SCT090 30/19 A3004 RMK AO2 LTG DSNT S
Conditions at:
KVDI (Vidalia Rgnl, GA) observed 0035 UTC 25 June 2016
Temperature:
30°C (86°F)
Dewpoint:
19°C (66.2°F) [RH = 51.8]
Pressure:
30.04 inches Hg (1017.3 mb)
Winds:
from the SSW (210 degrees) at 5.8 mph (5 knots: 2.6 m/s)
Visibility:
10 mile(s)
Ceiling:
at least 12,000 feet AGL
Clouds:
Scattered Clouds at 9,000 feet AGL
Remarks:
site is un-manned
site is automated and HAS a precipitation sensor

Translated TAF for TAF for VDI is not available. Refer to local area forecast.
FBO's on the Field
FBO Company Facility Photos Services Transportation Aviation Fuel Prices: Prices include tax
Catering Weather Repair Courtesy Rental Type 100LL JetA JetA+ MOGAS 8087
 
Vidalia Regional Airport

This FBO has not yet been rated
FS:Phillips 66
Last Updated: Jun-24
Login to update fuel prices
SS:
Contact Vidalia Regional AirportMore FBO Information
 
Add another FBO Facility Photos Catering Weather Repair Courtesy Rental Type 100LL JetA JetA+ MOGAS 8087
Services Transportation Aviation Fuel Prices: Prices include tax


model-print
model-print
model-print
model-print